Time;durP1;ratioP1;P1;durP2;ratioP2;P2;SDS_P1;SDS_P2;PMS_P1;PMS_P2;Temp;Humidity;BMP_temperature;BMP_pressure;BME280_temperature;BME280_humidity;BME280_pressure;Samples;Min_cycle;Max_cycle;Signal;HPM_P1;HPM_P2
2021/12/17 00:07:02;;;;;;;13.20;6.97;;;0.90;99.90;;;;;;5051916;28;20461;-66
2021/12/17 00:09:28;;;;;;;10.83;6.40;;;1.00;99.90;;;;;;5051617;28;20487;-66
2021/12/17 00:11:54;;;;;;;12.20;5.70;;;1.00;99.90;;;;;;5054132;28;20862;-66
2021/12/17 00:14:35;;;;;;;15.50;8.00;;;1.00;99.90;;;;;;5055156;28;20268;-67
2021/12/17 00:17:04;;;;;;;15.03;6.50;;;1.10;99.90;;;;;;5053070;28;20272;-66
2021/12/17 00:49:19;;;;;;;17.57;6.60;;;1.30;99.90;;;;;;5051036;28;20473;-66
2021/12/17 00:54:29;;;;;;;16.73;7.00;;;1.30;99.90;;;;;;5045928;28;20458;-66
2021/12/17 00:56:56;;;;;;;15.70;6.73;;;1.30;99.90;;;;;;5052922;28;20486;-66
2021/12/17 00:59:22;;;;;;;16.53;7.97;;;1.40;99.90;;;;;;5052432;28;20452;-66
2021/12/17 01:01:49;;;;;;;15.83;7.33;;;1.40;99.90;;;;;;5053977;28;20431;-66
2021/12/17 01:04:14;;;;;;;15.60;6.83;;;1.40;99.90;;;;;;5049924;28;20210;-66
2021/12/17 01:06:41;;;;;;;22.80;7.13;;;1.50;99.90;;;;;;5054900;28;20427;-66
2021/12/17 01:09:09;;;;;;;25.37;7.23;;;1.50;99.90;;;;;;5049767;28;20467;-66
2021/12/17 01:11:35;;;;;;;10.33;5.93;;;1.50;99.90;;;;;;5050949;28;20440;-66
2021/12/17 01:14:02;;;;;;;17.43;7.57;;;1.50;99.90;;;;;;5050398;28;20473;-66
2021/12/17 01:16:28;;;;;;;14.93;6.60;;;1.50;99.90;;;;;;5051165;28;20425;-66
2021/12/17 01:21:34;;;;;;;12.60;7.43;;;1.50;99.90;;;;;;5053398;28;20213;-66
2021/12/17 01:42:33;;;;;;;14.53;8.30;;;1.70;99.90;;;;;;5053459;28;20239;-66
2021/12/17 01:44:59;;;;;;;14.87;7.23;;;1.70;99.90;;;;;;5054280;28;20424;-65
2021/12/17 01:47:25;;;;;;;10.73;5.80;;;1.80;99.90;;;;;;5056757;28;20182;-65
2021/12/17 02:00:43;;;;;;;18.93;7.40;;;1.80;99.90;;;;;;5057938;28;20424;-66
2021/12/17 02:03:09;;;;;;;14.10;6.77;;;1.80;99.90;;;;;;5055087;28;20456;-66
2021/12/17 02:05:37;;;;;;;13.33;6.73;;;1.90;99.90;;;;;;5048004;28;20445;-66
2021/12/17 02:08:03;;;;;;;12.30;6.10;;;1.90;99.90;;;;;;5049614;28;20422;-66
2021/12/17 02:29:55;;;;;;;23.43;10.13;;;2.40;99.90;;;;;;5056289;28;20427;-66
2021/12/17 02:32:23;;;;;;;20.93;9.30;;;2.40;99.90;;;;;;5056584;28;20445;-66
2021/12/17 02:37:34;;;;;;;17.80;7.73;;;2.50;99.90;;;;;;5048790;28;20416;-66
2021/12/17 02:40:18;;;;;;;16.20;7.33;;;2.40;99.90;;;;;;5053621;28;20436;-66
2021/12/17 02:45:32;;;;;;;17.03;7.93;;;2.40;99.90;;;;;;5055713;28;20521;-66
2021/12/17 02:45:32;;;;;;;17.30;7.00;;;2.40;99.90;;;;;;5052245;28;20412;-66
2021/12/17 02:48:36;;;;;;;15.80;7.47;;;2.40;99.90;;;;;;5052956;28;20447;-66
2021/12/17 02:51:03;;;;;;;13.30;6.73;;;2.30;99.90;;;;;;5043920;28;20489;-66
2021/12/17 02:53:30;;;;;;;26.07;6.73;;;2.30;99.90;;;;;;5050926;28;20431;-66
2021/12/17 02:56:05;;;;;;;17.50;6.90;;;2.30;99.90;;;;;;5049734;28;20957;-66
2021/12/17 02:58:32;;;;;;;13.57;6.53;;;2.30;99.90;;;;;;5051219;28;20423;-66
2021/12/17 03:01:01;;;;;;;32.80;6.93;;;2.30;99.90;;;;;;5051872;28;20999;-66
2021/12/17 03:03:30;;;;;;;18.97;7.27;;;2.30;99.90;;;;;;5056305;28;20490;-66
2021/12/17 03:05:57;;;;;;;15.10;6.90;;;2.30;99.90;;;;;;5053002;28;20420;-66
2021/12/17 03:08:23;;;;;;;12.73;6.00;;;2.30;99.90;;;;;;5047184;28;20475;-66
2021/12/17 03:10:50;;;;;;;15.53;7.30;;;2.30;99.90;;;;;;5053015;28;20452;-66
2021/12/17 03:13:18;;;;;;;16.00;7.30;;;2.30;99.90;;;;;;5051263;28;20416;-66
2021/12/17 03:15:53;;;;;;;18.20;8.30;;;2.40;99.90;;;;;;5048768;28;20474;-66
2021/12/17 03:23:44;;;;;;;17.50;7.20;;;2.40;99.90;;;;;;5049932;28;20521;-66
2021/12/17 03:26:16;;;;;;;25.43;8.90;;;2.40;99.90;;;;;;5052086;28;20597;-66
2021/12/17 03:28:45;;;;;;;20.30;7.57;;;2.50;99.90;;;;;;5050239;28;20441;-66
2021/12/17 03:31:11;;;;;;;15.30;6.77;;;2.50;99.90;;;;;;5052883;28;20471;-66
2021/12/17 03:33:41;;;;;;;18.07;7.63;;;2.60;99.90;;;;;;5047744;28;20419;-66
2021/12/17 03:36:08;;;;;;;18.00;7.40;;;2.50;99.90;;;;;;5047398;28;21192;-66
2021/12/17 03:38:34;;;;;;;16.20;6.47;;;2.50;99.90;;;;;;5053592;28;20423;-66
2021/12/17 03:41:16;;;;;;;18.93;8.33;;;2.50;99.90;;;;;;5048825;28;21256;-66
2021/12/17 03:43:41;;;;;;;17.53;7.73;;;2.50;99.90;;;;;;5050628;28;20206;-66
2021/12/17 03:46:07;;;;;;;15.07;7.33;;;2.50;99.90;;;;;;5048902;28;20424;-66
2021/12/17 03:48:37;;;;;;;16.40;7.83;;;2.50;99.90;;;;;;5051776;28;20182;-66
2021/12/17 03:51:04;;;;;;;16.00;8.73;;;2.60;99.90;;;;;;5050265;28;20178;-66
2021/12/17 03:53:30;;;;;;;25.53;7.57;;;2.60;99.90;;;;;;5053320;28;20473;-66
2021/12/17 03:55:56;;;;;;;21.30;7.93;;;2.60;99.90;;;;;;5051052;28;20858;-66
2021/12/17 03:58:22;;;;;;;15.03;7.60;;;2.60;99.90;;;;;;5050021;28;20444;-66
2021/12/17 04:00:47;;;;;;;21.70;7.73;;;2.60;99.90;;;;;;5049900;28;20757;-66
2021/12/17 04:03:13;;;;;;;15.90;7.30;;;2.70;99.90;;;;;;5048908;28;20235;-66
2021/12/17 04:05:39;;;;;;;25.07;11.33;;;2.70;99.90;;;;;;5047788;28;20720;-66
2021/12/17 04:08:05;;;;;;;28.73;12.23;;;2.80;99.90;;;;;;5047472;28;20764;-66
2021/12/17 04:10:39;;;;;;;33.43;13.67;;;2.80;99.90;;;;;;5051739;28;20203;-66
2021/12/17 04:13:24;;;;;;;33.37;14.57;;;2.90;99.90;;;;;;5049778;28;20466;-66
2021/12/17 04:16:07;;;;;;;35.20;13.00;;;3.00;99.90;;;;;;5046259;28;20416;-66
2021/12/17 04:18:36;;;;;;;24.13;12.23;;;3.10;99.90;;;;;;5049210;28;20436;-66
2021/12/17 04:21:03;;;;;;;23.80;10.30;;;3.10;99.90;;;;;;5052316;28;20446;-66
2021/12/17 04:23:33;;;;;;;22.00;10.60;;;3.20;99.90;;;;;;5051000;28;20500;-66
2021/12/17 04:25:58;;;;;;;22.93;10.93;;;3.20;99.90;;;;;;5047521;28;20412;-66
2021/12/17 04:28:24;;;;;;;20.30;9.67;;;3.20;99.90;;;;;;5052735;28;20428;-66
2021/12/17 04:30:50;;;;;;;19.43;9.73;;;3.30;99.90;;;;;;5056185;28;20215;-66
2021/12/17 04:33:16;;;;;;;17.87;9.40;;;3.30;99.90;;;;;;5056513;28;20200;-66
2021/12/17 04:35:42;;;;;;;20.20;8.90;;;3.30;99.90;;;;;;5050784;28;20499;-66
2021/12/17 04:38:09;;;;;;;17.10;8.53;;;3.30;99.90;;;;;;5051026;28;20908;-66
2021/12/17 04:40:37;;;;;;;21.07;9.13;;;3.30;99.90;;;;;;5050788;28;20196;-66
2021/12/17 04:45:41;;;;;;;18.13;8.67;;;3.30;99.90;;;;;;5055096;28;20420;-66
2021/12/17 04:59:06;;;;;;;14.47;7.80;;;3.40;99.90;;;;;;5052580;28;20950;-66
2021/12/17 05:01:33;;;;;;;24.23;9.93;;;3.50;99.90;;;;;;5050302;28;20454;-66
2021/12/17 05:03:59;;;;;;;15.83;8.03;;;3.50;99.90;;;;;;5051601;28;20470;-66
2021/12/17 05:06:29;;;;;;;15.17;7.43;;;3.50;99.90;;;;;;5049888;28;20424;-66
2021/12/17 05:08:59;;;;;;;16.30;8.37;;;3.50;99.90;;;;;;5053491;28;20646;-66
2021/12/17 05:18:13;;;;;;;20.33;8.50;;;3.50;99.90;;;;;;5050518;28;20440;-66
2021/12/17 05:19:48;;;;;;;16.00;7.07;;;3.60;99.90;;;;;;5049889;28;20526;-67
2021/12/17 05:22:14;;;;;;;9.83;6.50;;;3.60;99.90;;;;;;5053048;28;20420;-66
2021/12/17 05:24:39;;;;;;;17.17;7.60;;;3.60;99.90;;;;;;5053625;28;20467;-66
2021/12/17 05:27:05;;;;;;;15.50;5.93;;;3.60;99.90;;;;;;5057160;28;20277;-66
2021/12/17 05:29:31;;;;;;;23.43;8.00;;;3.60;99.90;;;;;;5050479;28;20227;-66
2021/12/17 05:31:57;;;;;;;12.97;7.53;;;3.60;99.90;;;;;;5050170;28;20482;-66
2021/12/17 05:34:23;;;;;;;18.40;9.20;;;3.60;99.90;;;;;;5049808;28;20874;-66
2021/12/17 05:36:48;;;;;;;15.17;7.87;;;3.60;99.90;;;;;;5050766;28;20182;-66
2021/12/17 05:39:14;;;;;;;17.60;8.43;;;3.60;99.90;;;;;;5052061;28;20189;-66
2021/12/17 05:41:40;;;;;;;13.40;6.10;;;3.60;99.90;;;;;;5049091;28;20185;-66
2021/12/17 05:44:05;;;;;;;11.90;6.97;;;3.60;99.90;;;;;;5049985;28;20212;-66
2021/12/17 05:46:49;;;;;;;27.53;9.53;;;3.60;99.90;;;;;;5050962;28;20173;-66
2021/12/17 05:49:22;;;;;;;16.37;6.60;;;3.60;99.90;;;;;;5049671;28;20763;-66
2021/12/17 05:51:49;;;;;;;16.73;8.33;;;3.60;99.90;;;;;;5048270;28;20522;-67
2021/12/17 05:54:16;;;;;;;15.50;6.87;;;3.60;99.90;;;;;;5052956;28;20431;-66
2021/12/17 05:56:41;;;;;;;12.60;6.90;;;3.60;99.90;;;;;;5049198;28;20447;-66
2021/12/17 05:59:08;;;;;;;13.17;7.27;;;3.60;99.90;;;;;;5050601;28;20459;-66
2021/12/17 06:01:34;;;;;;;16.97;7.93;;;3.60;99.90;;;;;;5050952;28;20213;-66
2021/12/17 06:04:00;;;;;;;11.90;6.53;;;3.60;99.90;;;;;;5051683;28;20499;-66
2021/12/17 06:06:31;;;;;;;13.53;6.67;;;3.60;99.90;;;;;;5051935;28;20431;-66
2021/12/17 06:08:57;;;;;;;12.07;7.20;;;3.60;99.90;;;;;;5053450;28;20418;-66
2021/12/17 06:11:23;;;;;;;15.07;7.20;;;3.60;99.90;;;;;;5052649;28;20485;-66
2021/12/17 06:13:48;;;;;;;18.23;7.57;;;3.60;99.90;;;;;;5056711;28;20803;-66
2021/12/17 06:16:14;;;;;;;23.27;7.23;;;3.70;99.90;;;;;;5052274;28;20208;-66
2021/12/17 06:18:40;;;;;;;12.47;6.00;;;3.70;99.90;;;;;;5047776;28;20291;-66
2021/12/17 06:21:06;;;;;;;17.03;6.30;;;3.70;99.90;;;;;;5054221;28;20936;-66
2021/12/17 06:23:31;;;;;;;12.30;6.20;;;3.70;99.90;;;;;;5044813;28;20221;-66
2021/12/17 06:25:57;;;;;;;16.30;7.30;;;3.70;99.90;;;;;;5050907;28;20276;-67
2021/12/17 06:28:23;;;;;;;12.57;6.33;;;3.70;99.90;;;;;;5052788;28;20912;-67
2021/12/17 06:30:48;;;;;;;11.57;6.40;;;3.70;99.90;;;;;;5054544;28;20200;-67
2021/12/17 06:33:14;;;;;;;15.50;6.87;;;3.70;99.90;;;;;;5049616;28;20216;-66
2021/12/17 06:35:40;;;;;;;13.07;5.97;;;3.60;99.90;;;;;;5051616;28;20578;-66
2021/12/17 06:38:06;;;;;;;18.80;7.70;;;3.60;99.90;;;;;;5046771;28;20190;-67
2021/12/17 06:40:32;;;;;;;16.23;6.27;;;3.60;99.90;;;;;;5049769;28;20794;-66
2021/12/17 06:43:00;;;;;;;14.60;5.80;;;3.60;99.90;;;;;;5053818;28;20427;-66
2021/12/17 06:45:44;;;;;;;14.13;5.53;;;3.60;99.90;;;;;;5050666;28;20193;-66
2021/12/17 06:48:10;;;;;;;14.13;7.00;;;3.60;99.90;;;;;;5046586;28;20923;-66
2021/12/17 07:23:46;;;;;;;14.20;5.23;;;3.70;99.90;;;;;;5048763;28;20473;-66
2021/12/17 07:39:44;;;;;;;14.60;6.87;;;3.70;99.90;;;;;;5045212;28;21411;-64
2021/12/17 07:42:10;;;;;;;13.40;5.43;;;3.80;99.90;;;;;;5050209;28;20197;-67
2021/12/17 07:44:35;;;;;;;18.37;7.33;;;3.70;99.90;;;;;;5046107;28;20213;-66
2021/12/17 07:47:01;;;;;;;16.00;6.87;;;3.80;99.90;;;;;;5050421;28;20182;-66
2021/12/17 07:49:27;;;;;;;18.20;6.77;;;3.70;99.90;;;;;;5045518;28;20189;-67
2021/12/17 07:51:53;;;;;;;18.67;7.20;;;3.70;99.90;;;;;;5053448;28;20181;-67
2021/12/17 07:54:19;;;;;;;11.60;5.10;;;3.80;99.90;;;;;;5051413;28;20192;-67
2021/12/17 07:56:45;;;;;;;11.93;6.57;;;3.80;99.90;;;;;;5053473;28;20196;-66
2021/12/17 07:59:12;;;;;;;18.33;7.33;;;3.80;99.90;;;;;;5047073;28;20192;-66
2021/12/17 08:01:38;;;;;;;13.60;6.10;;;3.80;99.90;;;;;;5049458;28;20449;-66
2021/12/17 08:04:05;;;;;;;9.90;5.53;;;3.80;99.90;;;;;;5039444;28;21051;-67
2021/12/17 08:06:31;;;;;;;16.23;6.60;;;3.80;99.90;;;;;;5047327;28;20432;-67
2021/12/17 08:08:57;;;;;;;9.93;4.53;;;3.80;99.90;;;;;;5044231;28;21241;-66
2021/12/17 08:11:23;;;;;;;11.13;5.90;;;3.80;99.90;;;;;;5046278;28;20495;-67
2021/12/17 08:13:51;;;;;;;11.83;6.03;;;3.80;99.90;;;;;;5052297;28;20522;-67
2021/12/17 08:31:32;;;;;;;6.97;4.70;;;4.00;99.90;;;;;;5043806;28;20444;-66
2021/12/17 08:33:58;;;;;;;8.80;4.70;;;4.10;99.90;;;;;;5036528;28;20437;-66
2021/12/17 08:36:24;;;;;;;13.63;4.83;;;4.10;99.90;;;;;;5046556;28;20436;-65
2021/12/17 08:38:50;;;;;;;12.37;4.87;;;4.10;99.90;;;;;;5045742;28;20455;-65
2021/12/17 08:41:17;;;;;;;17.23;6.30;;;4.10;99.90;;;;;;5046979;28;20293;-68
2021/12/17 08:43:43;;;;;;;9.43;5.80;;;4.20;99.90;;;;;;5044296;28;20460;-68
2021/12/17 08:46:09;;;;;;;10.27;5.40;;;4.30;99.90;;;;;;5041692;28;20454;-68
2021/12/17 08:48:35;;;;;;;10.40;5.00;;;4.30;99.90;;;;;;5039764;28;20186;-66
2021/12/17 08:51:02;;;;;;;8.63;4.80;;;4.30;99.90;;;;;;5051605;28;20218;-66
2021/12/17 08:53:28;;;;;;;8.30;4.80;;;4.30;99.90;;;;;;5042795;28;20482;-66
2021/12/17 08:55:54;;;;;;;10.50;5.57;;;4.40;99.90;;;;;;5046215;28;20549;-66
2021/12/17 08:58:20;;;;;;;7.10;4.10;;;4.40;99.90;;;;;;5040706;28;20197;-66
2021/12/17 09:00:46;;;;;;;8.10;5.17;;;4.40;99.90;;;;;;5055077;28;20443;-66
2021/12/17 09:03:12;;;;;;;10.57;4.80;;;4.40;99.90;;;;;;5029646;28;20532;-66
2021/12/17 09:05:40;;;;;;;7.23;4.43;;;4.40;99.90;;;;;;5040628;28;20442;-66
2021/12/17 09:08:07;;;;;;;7.80;4.90;;;4.40;99.90;;;;;;5044579;28;20204;-66
2021/12/17 09:10:33;;;;;;;4.93;3.30;;;4.40;99.90;;;;;;5040787;28;20444;-66
2021/12/17 09:12:59;;;;;;;8.00;4.10;;;4.40;99.90;;;;;;5045689;28;20444;-66
2021/12/17 09:15:25;;;;;;;8.97;4.60;;;4.50;99.90;;;;;;5043793;28;20525;-66
2021/12/17 09:17:51;;;;;;;7.90;4.20;;;4.40;99.90;;;;;;5048545;28;20448;-66
2021/12/17 09:20:17;;;;;;;6.23;3.93;;;4.40;99.90;;;;;;5046400;28;20459;-66
2021/12/17 09:22:43;;;;;;;8.80;5.13;;;4.50;99.90;;;;;;5046378;28;20182;-66
2021/12/17 09:25:09;;;;;;;7.90;4.80;;;4.70;99.90;;;;;;5046651;28;20473;-66
2021/12/17 09:27:35;;;;;;;11.17;5.30;;;4.90;99.90;;;;;;5038829;28;20235;-65
2021/12/17 09:30:03;;;;;;;9.23;4.30;;;5.00;99.90;;;;;;5047170;28;20963;-66
2021/12/17 09:32:29;;;;;;;10.80;4.40;;;5.10;99.90;;;;;;5045995;28;20569;-66
2021/12/17 09:34:54;;;;;;;11.20;4.50;;;5.10;99.90;;;;;;5039156;28;20444;-66
2021/12/17 09:37:20;;;;;;;6.53;3.47;;;5.10;99.90;;;;;;5045584;28;20653;-66
2021/12/17 09:39:47;;;;;;;10.97;4.93;;;5.10;99.90;;;;;;5044738;28;20190;-66
2021/12/17 09:42:13;;;;;;;10.67;5.17;;;5.10;99.90;;;;;;5047114;28;20254;-66
2021/12/17 09:44:39;;;;;;;9.83;5.40;;;5.10;99.90;;;;;;5045927;28;20467;-66
2021/12/17 09:47:05;;;;;;;8.40;5.07;;;5.20;99.90;;;;;;5048095;28;20797;-66
2021/12/17 09:49:31;;;;;;;8.27;3.63;;;5.10;99.90;;;;;;5041328;28;20459;-66
2021/12/17 09:51:57;;;;;;;9.23;4.50;;;5.10;99.90;;;;;;5046937;28;20297;-66
2021/12/17 09:54:23;;;;;;;8.60;5.10;;;5.00;99.90;;;;;;5041778;28;20270;-66
2021/12/17 09:56:48;;;;;;;10.50;5.37;;;4.90;99.90;;;;;;5045413;28;21199;-67
2021/12/17 09:59:15;;;;;;;6.17;3.40;;;4.90;99.90;;;;;;5041573;28;20949;-66
2021/12/17 10:01:43;;;;;;;7.10;4.60;;;4.90;99.90;;;;;;5040535;28;20201;-66
2021/12/17 10:04:26;;;;;;;9.87;4.87;;;4.90;99.90;;;;;;5044851;28;20558;-66
2021/12/17 10:06:52;;;;;;;9.30;3.80;;;4.90;99.90;;;;;;5045690;28;20432;-66
2021/12/17 10:09:18;;;;;;;12.67;4.03;;;4.90;99.90;;;;;;5043142;28;20439;-66
2021/12/17 10:12:05;;;;;;;6.47;3.80;;;5.00;99.90;;;;;;5049433;28;20428;-66
2021/12/17 10:14:31;;;;;;;7.40;4.40;;;5.10;99.90;;;;;;5045133;28;20439;-66
2021/12/17 10:17:12;;;;;;;9.00;4.73;;;5.20;99.90;;;;;;5041878;28;20512;-66
2021/12/17 10:19:46;;;;;;;9.03;4.10;;;5.30;99.90;;;;;;5038711;28;20770;-66
2021/12/17 10:22:14;;;;;;;11.57;4.63;;;5.40;99.90;;;;;;5038606;28;20442;-66
2021/12/17 10:24:55;;;;;;;11.00;4.90;;;5.50;99.90;;;;;;5045148;28;20475;-66
2021/12/17 10:27:25;;;;;;;10.97;4.87;;;5.60;99.90;;;;;;5039244;28;20917;-66
2021/12/17 10:29:51;;;;;;;6.77;4.37;;;5.70;99.90;;;;;;5046025;28;20790;-66
2021/12/17 10:32:19;;;;;;;8.10;4.23;;;5.80;99.90;;;;;;5039717;28;21144;-65
2021/12/17 10:35:02;;;;;;;7.93;4.40;;;5.90;99.90;;;;;;5039137;28;20441;-65
2021/12/17 10:37:40;;;;;;;10.20;4.17;;;6.00;99.90;;;;;;5046168;28;20446;-66
2021/12/17 10:40:20;;;;;;;9.43;3.87;;;6.10;99.90;;;;;;5040660;28;20443;-65
2021/12/17 10:42:59;;;;;;;6.77;3.50;;;6.20;99.90;;;;;;5045349;28;20513;-66
2021/12/17 10:45:28;;;;;;;9.17;4.00;;;6.20;99.90;;;;;;5038711;28;20451;-66
2021/12/17 10:48:20;;;;;;;6.43;3.93;;;6.40;99.90;;;;;;5047328;28;20489;-66
2021/12/17 10:50:46;;;;;;;5.20;3.33;;;6.60;99.90;;;;;;5038775;28;20530;-66
2021/12/17 10:53:11;;;;;;;7.73;3.60;;;6.50;99.90;;;;;;5047529;28;20444;-66
2021/12/17 10:55:37;;;;;;;10.53;3.30;;;6.70;99.90;;;;;;5037214;28;20448;-66
2021/12/17 10:58:04;;;;;;;8.27;4.10;;;6.80;99.90;;;;;;5043908;28;20247;-66
2021/12/17 11:00:30;;;;;;;9.50;3.53;;;6.70;99.90;;;;;;5046761;28;20224;-67
2021/12/17 11:02:56;;;;;;;12.83;3.27;;;6.80;99.90;;;;;;5042726;28;20444;-66
2021/12/17 11:05:22;;;;;;;6.53;3.23;;;7.10;99.90;;;;;;5038481;28;20218;-66
2021/12/17 11:07:51;;;;;;;7.40;3.53;;;7.30;99.90;;;;;;5043402;28;20872;-66
2021/12/17 11:10:26;;;;;;;7.57;3.57;;;7.30;99.90;;;;;;5042433;28;20453;-66
2021/12/17 11:12:52;;;;;;;5.93;3.57;;;7.40;99.90;;;;;;5044501;28;20447;-66
2021/12/17 11:15:30;;;;;;;5.93;2.93;;;7.40;99.90;;;;;;5042060;28;20456;-66
2021/12/17 11:17:59;;;;;;;3.90;2.50;;;7.40;99.90;;;;;;5043933;28;20188;-66
2021/12/17 11:20:33;;;;;;;6.53;2.83;;;7.40;99.90;;;;;;5041519;28;20449;-66
2021/12/17 11:23:06;;;;;;;6.13;3.27;;;7.60;99.90;;;;;;5040885;28;20444;-66
2021/12/17 11:25:33;;;;;;;5.50;3.00;;;7.70;99.90;;;;;;5039885;28;20452;-66
2021/12/17 11:27:59;;;;;;;5.33;2.70;;;7.90;99.90;;;;;;5043511;28;20893;-66
2021/12/17 11:30:28;;;;;;;6.07;2.90;;;8.00;99.90;;;;;;5043670;28;20448;-66
2021/12/17 11:32:55;;;;;;;5.60;2.40;;;8.00;99.90;;;;;;5026915;28;21016;-67
2021/12/17 11:35:24;;;;;;;8.70;3.17;;;8.00;99.90;;;;;;5044263;28;20516;-67
2021/12/17 11:37:51;;;;;;;6.30;3.30;;;8.00;99.90;;;;;;5050632;28;20444;-67
2021/12/17 11:40:33;;;;;;;4.10;2.57;;;8.00;99.90;;;;;;5042978;28;20459;-66
2021/12/17 11:43:33;;;;;;;6.30;2.97;;;8.00;99.90;;;;;;5036837;28;20432;-66
2021/12/17 11:46:05;;;;;;;6.60;3.10;;;8.00;99.90;;;;;;5036971;28;20462;-67
2021/12/17 11:48:33;;;;;;;7.93;3.60;;;7.80;99.90;;;;;;5042236;28;20903;-67
2021/12/17 11:51:12;;;;;;;5.90;3.13;;;7.80;99.90;;;;;;5038567;28;20440;-66
2021/12/17 11:54:06;;;;;;;8.00;3.57;;;7.80;99.90;;;;;;5040867;28;20447;-66
2021/12/17 11:56:39;;;;;;;4.80;2.47;;;7.70;99.90;;;;;;5032987;28;20467;-66
2021/12/17 11:59:05;;;;;;;5.13;2.40;;;7.80;99.90;;;;;;5044980;28;20440;-66
2021/12/17 12:01:52;;;;;;;6.17;3.13;;;7.80;99.90;;;;;;5039503;28;20549;-67
2021/12/17 12:04:56;;;;;;;7.60;3.40;;;7.90;99.90;;;;;;5042656;28;20472;-67
2021/12/17 12:07:25;;;;;;;10.77;3.60;;;7.90;99.90;;;;;;5038881;28;20446;-67
2021/12/17 12:10:04;;;;;;;4.40;2.80;;;7.90;99.90;;;;;;5038691;28;20523;-69
2021/12/17 12:12:50;;;;;;;6.10;2.97;;;7.80;99.90;;;;;;5043731;28;21863;-67
2021/12/17 12:15:23;;;;;;;5.23;2.73;;;7.80;99.90;;;;;;5043043;28;20864;-68
2021/12/17 12:18:02;;;;;;;10.27;3.17;;;7.70;99.90;;;;;;5046460;28;20514;-68
2021/12/17 12:20:50;;;;;;;5.83;2.80;;;7.60;99.90;;;;;;5032192;28;20466;-67
2021/12/17 12:23:29;;;;;;;5.30;3.00;;;7.70;99.90;;;;;;5042503;28;20456;-67
2021/12/17 12:26:04;;;;;;;4.87;3.10;;;7.60;99.90;;;;;;5047943;28;20435;-66
2021/12/17 12:28:45;;;;;;;4.73;2.30;;;7.60;99.90;;;;;;5045607;28;20467;-68
2021/12/17 12:31:17;;;;;;;7.70;3.63;;;7.50;99.90;;;;;;5045378;28;20443;-67
2021/12/17 12:34:01;;;;;;;8.33;3.30;;;7.50;99.90;;;;;;5041291;28;20459;-68
2021/12/17 12:37:17;;;;;;;7.47;4.20;;;7.60;99.90;;;;;;5045683;28;20482;-68
2021/12/17 12:39:55;;;;;;;8.23;2.80;;;7.60;99.90;;;;;;4981851;28;20476;-67
2021/12/17 12:42:21;;;;;;;7.37;2.97;;;7.60;99.90;;;;;;5035542;28;20456;-67
2021/12/17 12:44:49;;;;;;;5.50;3.57;;;7.70;99.90;;;;;;5038200;28;20475;-68
2021/12/17 12:47:24;;;;;;;8.03;3.33;;;7.60;99.90;;;;;;5046856;28;20798;-68
2021/12/17 12:49:59;;;;;;;8.33;3.77;;;7.60;99.90;;;;;;5049289;28;20439;-67
2021/12/17 12:52:46;;;;;;;7.50;3.70;;;7.60;99.90;;;;;;5048897;28;20437;-67
2021/12/17 12:55:34;;;;;;;9.03;3.80;;;7.50;99.90;;;;;;5047826;28;20467;-68
2021/12/17 12:58:02;;;;;;;8.13;4.30;;;7.40;99.90;;;;;;5044587;28;20608;-67
2021/12/17 13:00:29;;;;;;;10.43;4.53;;;7.40;99.90;;;;;;5044241;28;20447;-67
2021/12/17 13:03:09;;;;;;;7.27;3.87;;;7.40;99.90;;;;;;5041658;28;20816;-68
2021/12/17 13:05:36;;;;;;;7.90;4.07;;;7.30;99.90;;;;;;5040674;28;21065;-68
2021/12/17 13:08:05;;;;;;;4.93;2.90;;;7.40;99.90;;;;;;5047794;28;21017;-67
2021/12/17 13:10:38;;;;;;;8.60;4.03;;;7.40;99.90;;;;;;5027339;28;20433;-67
2021/12/17 13:13:18;;;;;;;8.07;3.90;;;7.50;99.90;;;;;;5049598;28;20455;-67
2021/12/17 13:16:02;;;;;;;9.30;4.80;;;7.50;99.90;;;;;;5044673;28;21347;-67
2021/12/17 13:21:34;;;;;;;6.30;3.97;;;7.30;99.90;;;;;;5051514;28;20936;-68
2021/12/17 13:26:38;;;;;;;7.37;4.30;;;7.30;99.90;;;;;;5042370;28;20451;-67
2021/12/17 13:29:14;;;;;;;8.10;3.37;;;7.40;99.90;;;;;;5048400;28;20451;-68
2021/12/17 13:31:45;;;;;;;7.27;3.70;;;7.30;99.90;;;;;;5046961;28;20429;-68
2021/12/17 13:34:22;;;;;;;6.77;3.07;;;7.30;99.90;;;;;;5045422;28;20436;-68
2021/12/17 13:37:16;;;;;;;8.07;3.70;;;7.30;99.90;;;;;;5046690;28;20447;-70
2021/12/17 13:39:49;;;;;;;7.90;4.00;;;7.30;99.90;;;;;;5044485;28;20497;-68
2021/12/17 13:42:35;;;;;;;9.70;3.57;;;7.20;99.90;;;;;;5047224;28;20447;-68
2021/12/17 13:45:04;;;;;;;6.80;2.90;;;7.20;99.90;;;;;;5049582;28;20475;-67
2021/12/17 13:47:32;;;;;;;9.10;3.90;;;7.20;99.90;;;;;;5043276;28;20465;-68
2021/12/17 13:50:03;;;;;;;7.40;3.97;;;7.30;99.90;;;;;;5046941;28;20616;-68
2021/12/17 13:52:32;;;;;;;4.50;3.00;;;7.30;99.90;;;;;;5041707;28;21152;-68
2021/12/17 13:55:00;;;;;;;8.53;3.60;;;7.20;99.90;;;;;;5041200;28;20475;-67
2021/12/17 13:57:31;;;;;;;9.60;3.67;;;7.20;99.90;;;;;;5040493;28;20531;-67
2021/12/17 14:00:17;;;;;;;6.70;3.23;;;7.10;99.90;;;;;;5046739;28;20438;-67
2021/12/17 14:02:45;;;;;;;6.27;3.77;;;7.10;99.90;;;;;;5051442;28;20468;-68
2021/12/17 14:05:21;;;;;;;11.83;3.90;;;7.00;99.90;;;;;;5044731;28;20459;-68
2021/12/17 14:07:51;;;;;;;5.93;3.87;;;7.00;99.90;;;;;;5046594;28;20440;-68
2021/12/17 14:10:38;;;;;;;11.33;4.90;;;7.00;99.90;;;;;;5043515;28;20436;-68
2021/12/17 14:13:13;;;;;;;8.23;3.00;;;6.80;99.90;;;;;;5041421;28;20439;-68
2021/12/17 14:15:41;;;;;;;6.20;3.60;;;6.80;99.90;;;;;;5041061;28;20446;-68
2021/12/17 14:18:08;;;;;;;7.80;3.37;;;6.80;99.90;;;;;;5048451;28;20428;-67
2021/12/17 14:20:43;;;;;;;5.43;2.83;;;6.80;99.90;;;;;;5048681;28;20439;-67
2021/12/17 14:23:13;;;;;;;11.67;4.50;;;6.80;99.90;;;;;;5049658;28;20424;-67
2021/12/17 14:25:44;;;;;;;7.40;3.90;;;6.70;99.90;;;;;;5052908;28;20499;-68
2021/12/17 14:28:17;;;;;;;8.23;4.07;;;6.70;99.90;;;;;;5049010;28;20416;-68
2021/12/17 14:30:56;;;;;;;8.93;3.93;;;6.60;99.90;;;;;;5048022;28;20539;-68
2021/12/17 14:33:25;;;;;;;6.90;3.97;;;6.50;99.90;;;;;;5047586;28;20760;-68
2021/12/17 14:36:05;;;;;;;5.87;3.00;;;6.50;99.90;;;;;;5048875;28;21011;-68
2021/12/17 14:38:40;;;;;;;7.97;3.27;;;6.40;99.90;;;;;;5050514;28;20425;-68
2021/12/17 14:41:10;;;;;;;5.40;3.13;;;6.30;99.90;;;;;;5048891;28;20820;-68
2021/12/17 14:43:45;;;;;;;6.87;3.93;;;6.30;99.90;;;;;;5048333;28;20579;-67
2021/12/17 14:49:03;;;;;;;7.77;4.37;;;6.30;99.90;;;;;;5047230;28;20768;-68
2021/12/17 15:05:20;;;;;;;5.73;4.17;;;5.80;99.90;;;;;;5050597;28;20908;-68
2021/12/17 15:07:45;;;;;;;8.63;4.03;;;5.70;99.90;;;;;;5050950;28;20943;-67
2021/12/17 15:10:13;;;;;;;8.83;3.50;;;5.70;99.90;;;;;;5059280;28;20419;-67
2021/12/17 15:12:40;;;;;;;10.50;4.20;;;5.60;99.90;;;;;;5044136;28;20193;-68
2021/12/17 15:15:27;;;;;;;7.33;4.00;;;5.60;99.90;;;;;;5053684;28;20444;-68
2021/12/17 15:17:54;;;;;;;10.50;4.70;;;5.50;99.90;;;;;;5046801;28;20931;-68
2021/12/17 15:20:27;;;;;;;11.33;4.30;;;5.50;99.90;;;;;;5053174;28;20517;-68
2021/12/17 15:22:54;;;;;;;7.10;4.27;;;5.50;99.90;;;;;;5052141;28;20480;-68
2021/12/17 15:25:20;;;;;;;6.93;4.10;;;5.50;99.90;;;;;;5049305;28;20471;-68
2021/12/17 15:27:47;;;;;;;9.67;4.30;;;5.70;99.90;;;;;;5060099;28;20429;-67
2021/12/17 15:30:20;;;;;;;11.57;5.70;;;5.70;99.90;;;;;;5049149;28;20435;-67
2021/12/17 15:32:46;;;;;;;7.63;4.63;;;5.70;99.90;;;;;;5041323;28;20425;-67
2021/12/17 15:35:15;;;;;;;10.87;5.43;;;5.70;99.90;;;;;;5042553;28;20436;-68
2021/12/17 15:37:40;;;;;;;9.37;4.87;;;5.60;99.90;;;;;;5040306;28;20433;-67
2021/12/17 15:40:07;;;;;;;10.77;5.20;;;5.60;99.90;;;;;;5046670;28;20446;-68
2021/12/17 15:42:33;;;;;;;13.93;5.60;;;5.50;99.90;;;;;;5045389;28;20182;-67
2021/12/17 15:44:59;;;;;;;13.77;5.90;;;5.50;99.90;;;;;;5045263;28;20466;-67
2021/12/17 15:47:25;;;;;;;8.27;4.73;;;5.50;99.90;;;;;;5042689;28;20504;-68
2021/12/17 15:49:50;;;;;;;12.83;5.60;;;5.60;99.90;;;;;;5046811;28;20182;-68
2021/12/17 15:52:16;;;;;;;7.10;4.90;;;5.50;99.90;;;;;;5049742;28;20182;-68
2021/12/17 15:54:43;;;;;;;10.33;6.13;;;5.50;99.90;;;;;;5050532;28;20227;-68
2021/12/17 15:57:10;;;;;;;15.47;5.47;;;5.50;99.90;;;;;;5043245;28;21113;-67
2021/12/17 15:59:36;;;;;;;19.13;6.47;;;5.40;99.90;;;;;;5039250;28;20440;-67
2021/12/17 16:02:03;;;;;;;15.57;6.03;;;5.40;99.90;;;;;;5043277;28;20446;-68
2021/12/17 16:04:33;;;;;;;17.33;7.63;;;5.40;99.90;;;;;;5043455;28;20469;-68
2021/12/17 16:07:00;;;;;;;13.03;5.97;;;5.40;99.90;;;;;;5044754;28;20993;-68
2021/12/17 16:23:07;;;;;;;13.77;6.63;;;5.30;99.90;;;;;;5041718;28;21166;-67
2021/12/17 16:25:32;;;;;;;12.03;6.30;;;5.30;99.90;;;;;;5041899;28;20476;-68
2021/12/17 16:27:58;;;;;;;10.40;5.47;;;5.20;99.90;;;;;;5047185;28;20178;-68
2021/12/17 16:30:24;;;;;;;15.07;6.27;;;5.40;99.90;;;;;;5050294;28;20666;-68
2021/12/17 16:32:50;;;;;;;23.37;6.83;;;5.30;99.90;;;;;;5045692;28;20191;-67
2021/12/17 16:35:16;;;;;;;14.77;7.43;;;5.30;99.90;;;;;;5044069;28;20534;-67
2021/12/17 16:37:42;;;;;;;13.57;6.80;;;5.20;99.90;;;;;;5046955;28;20558;-68
2021/12/17 16:40:08;;;;;;;15.00;7.60;;;5.30;99.90;;;;;;5044632;28;20911;-68